sensor_id;sensor_type;location;lat;lon;timestamp;pressure;altitude;pressure_sealevel;temperature;humidity
77737;BME280;66903;59.926;30.404;2023-04-29T00:02:54;101192.13;;;26.82;30.71
77737;BME280;66903;59.926;30.404;2023-04-29T00:07:55;101195.28;;;26.81;30.80
77737;BME280;66903;59.926;30.404;2023-04-29T00:12:57;101181.59;;;26.78;30.65
77737;BME280;66903;59.926;30.404;2023-04-29T00:17:57;101191.28;;;26.82;30.60
77737;BME280;66903;59.926;30.404;2023-04-29T00:22:58;101184.69;;;26.81;30.60
77737;BME280;66903;59.926;30.404;2023-04-29T00:27:58;101191.28;;;26.82;30.72
77737;BME280;66903;59.926;30.404;2023-04-29T00:33:01;101195.28;;;26.81;30.62
77737;BME280;66903;59.926;30.404;2023-04-29T00:38:02;101189.53;;;26.81;30.33
77737;BME280;66903;59.926;30.404;2023-04-29T00:43:02;101196.13;;;26.81;30.91
77737;BME280;66903;59.926;30.404;2023-04-29T00:48:03;101192.41;;;26.81;30.75
77737;BME280;66903;59.926;30.404;2023-04-29T00:53:03;101191.59;;;26.80;30.83
77737;BME280;66903;59.926;30.404;2023-04-29T00:58:04;101195.59;;;26.79;30.51
77737;BME280;66903;59.926;30.404;2023-04-29T01:03:05;101193.59;;;26.80;30.95
77737;BME280;66903;59.926;30.404;2023-04-29T01:08:14;101190.41;;;26.81;30.96
77737;BME280;66903;59.926;30.404;2023-04-29T01:13:20;101183.00;;;26.80;30.77
77737;BME280;66903;59.926;30.404;2023-04-29T01:18:54;101190.84;;;26.88;30.00
77737;BME280;66903;59.926;30.404;2023-04-29T01:23:57;101196.69;;;26.83;30.62
77737;BME280;66903;59.926;30.404;2023-04-29T01:34:27;101178.72;;;26.78;30.31
77737;BME280;66903;59.926;30.404;2023-04-29T01:40:15;101185.75;;;26.85;30.30
77737;BME280;66903;59.926;30.404;2023-04-29T01:45:17;101188.50;;;26.77;30.68
77737;BME280;66903;59.926;30.404;2023-04-29T01:50:18;101188.81;;;26.75;30.87
77737;BME280;66903;59.926;30.404;2023-04-29T01:55:20;101186.78;;;26.76;30.87
77737;BME280;66903;59.926;30.404;2023-04-29T02:00:21;101190.81;;;26.75;30.96
77737;BME280;66903;59.926;30.404;2023-04-29T02:05:22;101190.81;;;26.75;31.15
77737;BME280;66903;59.926;30.404;2023-04-29T02:10:23;101187.09;;;26.74;30.90
77737;BME280;66903;59.926;30.404;2023-04-29T02:15:25;101193.38;;;26.76;31.01
77737;BME280;66903;59.926;30.404;2023-04-29T02:20:27;101190.28;;;26.73;31.27
77737;BME280;66903;59.926;30.404;2023-04-29T02:25:27;101180.00;;;26.72;31.02
77737;BME280;66903;59.926;30.404;2023-04-29T02:30:28;101187.72;;;26.71;31.01
77737;BME280;66903;59.926;30.404;2023-04-29T02:35:28;101190.91;;;26.70;31.02
77737;BME280;66903;59.926;30.404;2023-04-29T02:40:29;101186.31;;;26.69;31.26
77737;BME280;66903;59.926;30.404;2023-04-29T02:45:29;101185.50;;;26.68;31.17
77737;BME280;66903;59.926;30.404;2023-04-29T02:50:30;101185.50;;;26.68;31.16
77737;BME280;66903;59.926;30.404;2023-04-29T02:55:30;101192.38;;;26.67;31.05
77737;BME280;66903;59.926;30.404;2023-04-29T03:00:31;101182.06;;;26.66;31.44
77737;BME280;66903;59.926;30.404;2023-04-29T03:05:31;101185.84;;;26.62;31.39
77737;BME280;66903;59.926;30.404;2023-04-29T03:10:32;101204.38;;;26.69;31.51
77737;BME280;66903;59.926;30.404;2023-04-29T03:15:33;101192.06;;;26.69;31.21
77737;BME280;66903;59.926;30.404;2023-04-29T03:20:34;101189.88;;;26.61;30.87
77737;BME280;66903;59.926;30.404;2023-04-29T03:25:34;101184.59;;;26.49;30.40
77737;BME280;66903;59.926;30.404;2023-04-29T03:30:36;101195.69;;;26.37;30.48
77737;BME280;66903;59.926;30.404;2023-04-29T03:35:36;101198.72;;;26.27;30.28
77737;BME280;66903;59.926;30.404;2023-04-29T03:40:37;101204.84;;;26.20;30.07
77737;BME280;66903;59.926;30.404;2023-04-29T03:45:39;101204.91;;;26.15;30.21
77737;BME280;66903;59.926;30.404;2023-04-29T03:50:39;101209.25;;;26.13;29.99
77737;BME280;66903;59.926;30.404;2023-04-29T03:55:40;101205.91;;;26.06;30.17
77737;BME280;66903;59.926;30.404;2023-04-29T04:00:40;101207.06;;;26.05;29.84
77737;BME280;66903;59.926;30.404;2023-04-29T04:05:41;101202.19;;;26.05;29.57
77737;BME280;66903;59.926;30.404;2023-04-29T04:10:41;101180.19;;;26.01;29.85
77737;BME280;66903;59.926;30.404;2023-04-29T04:15:48;101191.28;;;26.07;29.74
77737;BME280;66903;59.926;30.404;2023-04-29T04:20:49;101194.69;;;26.09;29.68
77737;BME280;66903;59.926;30.404;2023-04-29T04:25:49;101184.91;;;26.10;29.54
77737;BME280;66903;59.926;30.404;2023-04-29T04:30:50;101192.69;;;26.10;29.51
77737;BME280;66903;59.926;30.404;2023-04-29T04:35:51;101190.41;;;26.07;29.37
77737;BME280;66903;59.926;30.404;2023-04-29T04:40:51;101200.47;;;26.04;29.34
77737;BME280;66903;59.926;30.404;2023-04-29T04:45:52;101201.63;;;26.03;29.48
77737;BME280;66903;59.926;30.404;2023-04-29T04:50:52;101196.75;;;26.04;29.84
77737;BME280;66903;59.926;30.404;2023-04-29T04:55:53;101201.50;;;26.13;29.18
77737;BME280;66903;59.926;30.404;2023-04-29T05:00:53;101193.06;;;26.22;29.33
77737;BME280;66903;59.926;30.404;2023-04-29T05:05:58;101193.31;;;26.26;29.00
77737;BME280;66903;59.926;30.404;2023-04-29T05:10:58;101200.50;;;26.23;29.31
77737;BME280;66903;59.926;30.404;2023-04-29T05:16:01;101175.03;;;26.21;29.33
77737;BME280;66903;59.926;30.404;2023-04-29T05:21:03;101190.13;;;26.27;29.17
77737;BME280;66903;59.926;30.404;2023-04-29T05:26:04;101200.41;;;26.28;28.84
77737;BME280;66903;59.926;30.404;2023-04-29T05:31:04;101195.22;;;26.30;29.08
77737;BME280;66903;59.926;30.404;2023-04-29T05:36:05;101194.22;;;26.40;28.91
77737;BME280;66903;59.926;30.404;2023-04-29T05:41:06;101184.47;;;26.41;28.94
77737;BME280;66903;59.926;30.404;2023-04-29T05:46:07;101192.38;;;26.67;29.17
77737;BME280;66903;59.926;30.404;2023-04-29T05:51:07;101197.47;;;27.02;28.13
77737;BME280;66903;59.926;30.404;2023-04-29T05:56:08;101197.72;;;27.19;28.29
77737;BME280;66903;59.926;30.404;2023-04-29T06:01:08;101193.50;;;27.17;28.16
77737;BME280;66903;59.926;30.404;2023-04-29T06:06:09;101206.31;;;27.06;27.88
77737;BME280;66903;59.926;30.404;2023-04-29T06:11:09;101207.75;;;26.90;28.21
77737;BME280;66903;59.926;30.404;2023-04-29T06:16:10;101203.75;;;26.72;28.15
77737;BME280;66903;59.926;30.404;2023-04-29T06:21:11;101193.06;;;26.59;28.21
77737;BME280;66903;59.926;30.404;2023-04-29T06:26:11;101198.03;;;26.54;28.33
77737;BME280;66903;59.926;30.404;2023-04-29T06:31:12;101204.16;;;26.47;28.35
77737;BME280;66903;59.926;30.404;2023-04-29T06:36:13;101201.06;;;26.44;28.76
77737;BME280;66903;59.926;30.404;2023-04-29T06:41:13;101209.88;;;26.47;28.60
77737;BME280;66903;59.926;30.404;2023-04-29T06:46:14;101217.53;;;26.52;28.60
77737;BME280;66903;59.926;30.404;2023-04-29T06:51:15;101218.31;;;26.57;28.36
77737;BME280;66903;59.926;30.404;2023-04-29T06:56:16;101230.63;;;26.58;28.39
77737;BME280;66903;59.926;30.404;2023-04-29T07:01:17;101224.66;;;26.54;28.50
77737;BME280;66903;59.926;30.404;2023-04-29T07:06:17;101218.84;;;26.59;28.71
77737;BME280;66903;59.926;30.404;2023-04-29T07:11:18;101226.06;;;26.75;28.76
77737;BME280;66903;59.926;30.404;2023-04-29T07:16:18;101216.56;;;26.93;28.81
77737;BME280;66903;59.926;30.404;2023-04-29T07:21:25;101222.94;;;26.90;28.87
77737;BME280;66903;59.926;30.404;2023-04-29T07:26:26;101224.81;;;26.81;28.64
77737;BME280;66903;59.926;30.404;2023-04-29T07:31:27;101226.69;;;26.72;29.06
77737;BME280;66903;59.926;30.404;2023-04-29T07:36:29;101226.44;;;26.69;29.05
77737;BME280;66903;59.926;30.404;2023-04-29T07:41:30;101240.59;;;26.97;28.51
77737;BME280;66903;59.926;30.404;2023-04-29T07:46:31;101241.47;;;27.11;28.33
77737;BME280;66903;59.926;30.404;2023-04-29T07:51:31;101248.84;;;27.17;28.14
77737;BME280;66903;59.926;30.404;2023-04-29T07:56:32;101247.84;;;27.08;27.88
77737;BME280;66903;59.926;30.404;2023-04-29T08:01:32;101251.19;;;26.97;28.05
77737;BME280;66903;59.926;30.404;2023-04-29T08:06:33;101250.53;;;26.86;28.01
77737;BME280;66903;59.926;30.404;2023-04-29T08:11:34;101252.25;;;26.87;28.02
77737;BME280;66903;59.926;30.404;2023-04-29T08:16:35;101249.84;;;26.76;27.99
77737;BME280;66903;59.926;30.404;2023-04-29T08:21:36;101268.84;;;26.67;27.96
77737;BME280;66903;59.926;30.404;2023-04-29T08:26:36;101289.88;;;26.62;28.10
77737;BME280;66903;59.926;30.404;2023-04-29T08:31:39;101310.88;;;26.58;28.69
77737;BME280;66903;59.926;30.404;2023-04-29T08:36:40;101308.91;;;26.53;28.61
77737;BME280;66903;59.926;30.404;2023-04-29T08:41:40;101314.16;;;26.46;28.96
77737;BME280;66903;59.926;30.404;2023-04-29T08:46:44;101318.56;;;26.39;29.26
77737;BME280;66903;59.926;30.404;2023-04-29T08:51:48;101319.09;;;26.41;29.34
77737;BME280;66903;59.926;30.404;2023-04-29T08:56:51;101317.22;;;27.10;28.57
77737;BME280;66903;59.926;30.404;2023-04-29T09:01:53;101315.47;;;27.47;28.64
77737;BME280;66903;59.926;30.404;2023-04-29T09:06:57;101325.38;;;27.54;28.50
77737;BME280;66903;59.926;30.404;2023-04-29T09:11:58;101326.22;;;27.55;28.50
77737;BME280;66903;59.926;30.404;2023-04-29T09:16:59;101321.22;;;27.92;28.09
77737;BME280;66903;59.926;30.404;2023-04-29T09:22:01;101338.03;;;27.99;27.80
77737;BME280;66903;59.926;30.404;2023-04-29T09:27:02;101338.59;;;27.69;27.99
77737;BME280;66903;59.926;30.404;2023-04-29T09:32:18;101343.94;;;27.89;28.28
77737;BME280;66903;59.926;30.404;2023-04-29T09:37:26;101346.81;;;27.89;28.45
77737;BME280;66903;59.926;30.404;2023-04-29T09:42:27;101345.19;;;27.83;28.26
77737;BME280;66903;59.926;30.404;2023-04-29T09:47:30;101351.81;;;27.83;28.15
77737;BME280;66903;59.926;30.404;2023-04-29T09:52:39;101349.00;;;28.10;28.00
77737;BME280;66903;59.926;30.404;2023-04-29T09:57:43;101355.41;;;28.21;27.87
77737;BME280;66903;59.926;30.404;2023-04-29T10:02:46;101359.75;;;28.18;27.70
77737;BME280;66903;59.926;30.404;2023-04-29T10:07:47;101371.03;;;28.01;27.80
77737;BME280;66903;59.926;30.404;2023-04-29T10:12:52;101386.16;;;27.88;27.93
77737;BME280;66903;59.926;30.404;2023-04-29T10:18:13;101385.59;;;27.73;28.17
77737;BME280;66903;59.926;30.404;2023-04-29T10:23:19;101395.41;;;27.85;28.44
77737;BME280;66903;59.926;30.404;2023-04-29T10:28:22;101389.03;;;28.20;28.00
77737;BME280;66903;59.926;30.404;2023-04-29T10:33:24;101374.97;;;28.19;27.84
77737;BME280;66903;59.926;30.404;2023-04-29T10:38:43;101392.59;;;27.99;28.43
77737;BME280;66903;59.926;30.404;2023-04-29T10:43:46;101397.97;;;27.87;29.51
77737;BME280;66903;59.926;30.404;2023-04-29T10:48:49;101394.88;;;28.15;29.35
77737;BME280;66903;59.926;30.404;2023-04-29T10:54:05;101395.03;;;28.65;28.99
77737;BME280;66903;59.926;30.404;2023-04-29T10:59:11;101397.09;;;29.00;28.60
77737;BME280;66903;59.926;30.404;2023-04-29T11:04:12;101394.22;;;28.86;28.28
77737;BME280;66903;59.926;30.404;2023-04-29T11:09:17;101402.13;;;28.81;28.44
77737;BME280;66903;59.926;30.404;2023-04-29T11:14:34;101402.91;;;29.08;28.10
77737;BME280;66903;59.926;30.404;2023-04-29T11:19:43;101402.72;;;29.05;27.55
77737;BME280;66903;59.926;30.404;2023-04-29T11:24:52;101405.19;;;28.98;27.50
77737;BME280;66903;59.926;30.404;2023-04-29T11:29:54;101408.31;;;28.88;27.61
77737;BME280;66903;59.926;30.404;2023-04-29T11:35:14;101404.69;;;28.82;27.49
77737;BME280;66903;59.926;30.404;2023-04-29T11:40:15;101406.38;;;28.83;27.15
77737;BME280;66903;59.926;30.404;2023-04-29T11:45:17;101419.38;;;28.81;27.19
77737;BME280;66903;59.926;30.404;2023-04-29T11:50:17;101410.34;;;28.74;27.07
77737;BME280;66903;59.926;30.404;2023-04-29T11:55:19;101418.84;;;28.65;27.03
77737;BME280;66903;59.926;30.404;2023-04-29T12:00:19;101416.09;;;28.60;27.22
77737;BME280;66903;59.926;30.404;2023-04-29T12:05:20;101429.84;;;28.63;26.72
77737;BME280;66903;59.926;30.404;2023-04-29T12:10:26;101421.94;;;28.55;26.84
77737;BME280;66903;59.926;30.404;2023-04-29T12:15:26;101439.84;;;28.52;27.13
77737;BME280;66903;59.926;30.404;2023-04-29T12:20:28;101433.41;;;28.42;27.37
77737;BME280;66903;59.926;30.404;2023-04-29T12:25:31;101437.44;;;28.41;27.90
77737;BME280;66903;59.926;30.404;2023-04-29T12:30:33;101446.06;;;28.41;28.56
77737;BME280;66903;59.926;30.404;2023-04-29T12:35:35;101444.59;;;28.43;28.73
77737;BME280;66903;59.926;30.404;2023-04-29T12:40:36;101437.75;;;28.39;28.29
77737;BME280;66903;59.926;30.404;2023-04-29T12:45:37;101447.03;;;28.36;28.04
77737;BME280;66903;59.926;30.404;2023-04-29T12:50:38;101444.47;;;28.34;27.73
77737;BME280;66903;59.926;30.404;2023-04-29T12:55:39;101445.41;;;28.30;27.71
77737;BME280;66903;59.926;30.404;2023-04-29T13:00:39;101437.53;;;28.22;27.54
77737;BME280;66903;59.926;30.404;2023-04-29T13:05:40;101435.09;;;28.15;27.39
77737;BME280;66903;59.926;30.404;2023-04-29T13:10:41;101436.34;;;28.09;27.49
77737;BME280;66903;59.926;30.404;2023-04-29T13:15:42;101441.66;;;28.02;27.27
77737;BME280;66903;59.926;30.404;2023-04-29T13:20:42;101438.72;;;27.89;27.51
77737;BME280;66903;59.926;30.404;2023-04-29T13:25:43;101439.63;;;27.84;27.06
77737;BME280;66903;59.926;30.404;2023-04-29T13:30:43;101444.09;;;27.77;27.51
77737;BME280;66903;59.926;30.404;2023-04-29T13:35:44;101432.72;;;27.72;27.36
77737;BME280;66903;59.926;30.404;2023-04-29T13:40:45;101433.41;;;27.64;27.43
77737;BME280;66903;59.926;30.404;2023-04-29T13:45:45;101442.97;;;27.59;27.75
77737;BME280;66903;59.926;30.404;2023-04-29T13:50:46;101450.81;;;27.54;27.67
77737;BME280;66903;59.926;30.404;2023-04-29T13:55:47;101457.69;;;27.53;27.52
77737;BME280;66903;59.926;30.404;2023-04-29T14:00:48;101457.19;;;27.51;28.07
77737;BME280;66903;59.926;30.404;2023-04-29T14:05:48;101461.81;;;27.47;27.87
77737;BME280;66903;59.926;30.404;2023-04-29T14:10:49;101454.75;;;27.39;28.25
77737;BME280;66903;59.926;30.404;2023-04-29T14:15:49;101462.22;;;27.40;28.19
77737;BME280;66903;59.926;30.404;2023-04-29T14:20:50;101459.69;;;27.39;28.24
77737;BME280;66903;59.926;30.404;2023-04-29T14:25:51;101460.50;;;27.39;28.27
77737;BME280;66903;59.926;30.404;2023-04-29T14:30:51;101474.03;;;27.39;27.89
77737;BME280;66903;59.926;30.404;2023-04-29T14:35:52;101467.72;;;27.37;27.93
77737;BME280;66903;59.926;30.404;2023-04-29T14:40:52;101469.75;;;27.36;27.97
77737;BME280;66903;59.926;30.404;2023-04-29T14:45:54;101474.06;;;27.34;27.88
77737;BME280;66903;59.926;30.404;2023-04-29T14:50:54;101473.84;;;27.30;27.57
77737;BME280;66903;59.926;30.404;2023-04-29T14:55:55;101471.88;;;27.25;27.87
77737;BME280;66903;59.926;30.404;2023-04-29T15:00:55;101473.66;;;27.21;27.28
77737;BME280;66903;59.926;30.404;2023-04-29T15:05:56;101470.00;;;27.16;27.73
77737;BME280;66903;59.926;30.404;2023-04-29T15:10:57;101465.81;;;27.08;27.69
77737;BME280;66903;59.926;30.404;2023-04-29T15:15:58;101459.78;;;27.10;27.85
77737;BME280;66903;59.926;30.404;2023-04-29T15:20:58;101469.53;;;27.09;27.67
77737;BME280;66903;59.926;30.404;2023-04-29T15:25:59;101463.03;;;27.03;27.64
77737;BME280;66903;59.926;30.404;2023-04-29T15:31:00;101483.63;;;27.05;27.46
77737;BME280;66903;59.926;30.404;2023-04-29T15:36:03;101467.03;;;27.02;27.55
77737;BME280;66903;59.926;30.404;2023-04-29T15:41:03;101470.00;;;26.97;27.30
77737;BME280;66903;59.926;30.404;2023-04-29T15:46:06;101469.28;;;26.87;27.38
77737;BME280;66903;59.926;30.404;2023-04-29T15:51:06;101472.44;;;26.85;27.74
77737;BME280;66903;59.926;30.404;2023-04-29T15:56:09;101477.09;;;26.81;27.95
77737;BME280;66903;59.926;30.404;2023-04-29T16:01:10;101482.88;;;26.76;27.67
77737;BME280;66903;59.926;30.404;2023-04-29T16:06:10;101486.06;;;26.75;27.96
77737;BME280;66903;59.926;30.404;2023-04-29T16:11:11;101479.22;;;26.71;28.29
77737;BME280;66903;59.926;30.404;2023-04-29T16:16:11;101485.25;;;26.69;27.96
77737;BME280;66903;59.926;30.404;2023-04-29T16:21:12;101482.44;;;26.64;27.86
77737;BME280;66903;59.926;30.404;2023-04-29T16:26:12;101481.00;;;26.62;27.42
77737;BME280;66903;59.926;30.404;2023-04-29T16:31:13;101484.81;;;26.57;27.30
77737;BME280;66903;59.926;30.404;2023-04-29T16:36:14;101493.47;;;26.52;27.18
77737;BME280;66903;59.926;30.404;2023-04-29T16:41:15;101499.78;;;26.49;27.68
77737;BME280;66903;59.926;30.404;2023-04-29T16:46:15;101503.28;;;26.46;27.74
77737;BME280;66903;59.926;30.404;2023-04-29T16:51:17;101504.75;;;26.44;27.92
77737;BME280;66903;59.926;30.404;2023-04-29T16:56:18;101498.78;;;26.40;27.97
77737;BME280;66903;59.926;30.404;2023-04-29T17:01:19;101502.22;;;26.37;28.02
77737;BME280;66903;59.926;30.404;2023-04-29T17:06:19;101501.66;;;26.35;27.83
77737;BME280;66903;59.926;30.404;2023-04-29T17:11:20;101498.53;;;26.32;27.94
77737;BME280;66903;59.926;30.404;2023-04-29T17:16:20;101512.94;;;26.27;28.20
77737;BME280;66903;59.926;30.404;2023-04-29T17:21:21;101498.91;;;26.25;27.83
77737;BME280;66903;59.926;30.404;2023-04-29T17:26:24;101503.25;;;26.23;28.10
77737;BME280;66903;59.926;30.404;2023-04-29T17:31:24;101507.25;;;26.21;27.70
77737;BME280;66903;59.926;30.404;2023-04-29T17:36:32;101506.69;;;26.19;27.87
77737;BME280;66903;59.926;30.404;2023-04-29T17:41:33;101514.47;;;26.19;28.01
77737;BME280;66903;59.926;30.404;2023-04-29T17:46:34;101503.31;;;26.12;27.77
77737;BME280;66903;59.926;30.404;2023-04-29T17:51:35;101520.75;;;26.16;27.94
77737;BME280;66903;59.926;30.404;2023-04-29T17:56:36;101514.22;;;26.10;27.00
77737;BME280;66903;59.926;30.404;2023-04-29T18:01:37;101531.72;;;26.09;27.49
77737;BME280;66903;59.926;30.404;2023-04-29T18:06:37;101522.31;;;26.03;27.68
77737;BME280;66903;59.926;30.404;2023-04-29T18:11:38;101522.03;;;26.00;27.76
77737;BME280;66903;59.926;30.404;2023-04-29T18:16:38;101526.06;;;25.99;27.69
77737;BME280;66903;59.926;30.404;2023-04-29T18:21:39;101513.47;;;25.95;27.84
77737;BME280;66903;59.926;30.404;2023-04-29T18:26:39;101520.38;;;25.94;27.77
77737;BME280;66903;59.926;30.404;2023-04-29T18:31:40;101520.41;;;25.89;27.98
77737;BME280;66903;59.926;30.404;2023-04-29T18:36:41;101520.13;;;25.90;27.71
77737;BME280;66903;59.926;30.404;2023-04-29T18:41:42;101527.28;;;25.88;27.80
77737;BME280;66903;59.926;30.404;2023-04-29T18:46:43;101528.75;;;25.85;27.76
77737;BME280;66903;59.926;30.404;2023-04-29T18:51:44;101525.63;;;25.82;27.51
77737;BME280;66903;59.926;30.404;2023-04-29T18:56:47;101526.50;;;25.77;27.46
77737;BME280;66903;59.926;30.404;2023-04-29T19:01:48;101529.09;;;25.74;27.25
77737;BME280;66903;59.926;30.404;2023-04-29T19:06:49;101522.84;;;25.72;27.56
77737;BME280;66903;59.926;30.404;2023-04-29T19:11:50;101526.84;;;25.71;28.43
77737;BME280;66903;59.926;30.404;2023-04-29T19:16:50;101520.81;;;25.72;28.09
77737;BME280;66903;59.926;30.404;2023-04-29T19:21:51;101522.84;;;25.72;28.03
77737;BME280;66903;59.926;30.404;2023-04-29T19:26:52;101514.53;;;25.70;28.25
77737;BME280;66903;59.926;30.404;2023-04-29T19:31:52;101508.56;;;25.67;28.15
77737;BME280;66903;59.926;30.404;2023-04-29T19:36:53;101514.00;;;25.68;27.98
77737;BME280;66903;59.926;30.404;2023-04-29T19:41:54;101505.16;;;25.65;27.96
77737;BME280;66903;59.926;30.404;2023-04-29T19:46:55;101501.19;;;25.61;27.89
77737;BME280;66903;59.926;30.404;2023-04-29T19:51:55;101506.91;;;25.61;28.11
77737;BME280;66903;59.926;30.404;2023-04-29T19:56:56;101506.31;;;25.64;28.47
77737;BME280;66903;59.926;30.404;2023-04-29T20:01:56;101505.69;;;25.67;28.16
77737;BME280;66903;59.926;30.404;2023-04-29T20:06:57;101503.97;;;25.71;28.65
77737;BME280;66903;59.926;30.404;2023-04-29T20:11:57;101503.31;;;25.79;28.68
77737;BME280;66903;59.926;30.404;2023-04-29T20:16:58;101494.09;;;25.87;28.58
77737;BME280;66903;59.926;30.404;2023-04-29T20:21:59;101498.06;;;25.91;28.45
77737;BME280;66903;59.926;30.404;2023-04-29T20:27:00;101482.59;;;25.92;28.74
77737;BME280;66903;59.926;30.404;2023-04-29T20:32:02;101486.53;;;26.01;28.78
77737;BME280;66903;59.926;30.404;2023-04-29T20:37:05;101478.47;;;26.08;28.80
77737;BME280;66903;59.926;30.404;2023-04-29T20:42:06;101460.63;;;26.16;29.03
77737;BME280;66903;59.926;30.404;2023-04-29T20:47:07;101455.38;;;26.23;29.22
77737;BME280;66903;59.926;30.404;2023-04-29T20:52:07;101457.06;;;26.29;29.54
77737;BME280;66903;59.926;30.404;2023-04-29T20:57:08;101451.25;;;26.34;29.71
77737;BME280;66903;59.926;30.404;2023-04-29T21:02:08;101447.47;;;26.39;29.61
77737;BME280;66903;59.926;30.404;2023-04-29T21:07:09;101448.59;;;26.43;29.76
77737;BME280;66903;59.926;30.404;2023-04-29T21:12:09;101438.78;;;26.49;29.89
77737;BME280;66903;59.926;30.404;2023-04-29T21:17:10;101441.34;;;26.50;29.55
77737;BME280;66903;59.926;30.404;2023-04-29T21:22:10;101432.44;;;26.52;29.70
77737;BME280;66903;59.926;30.404;2023-04-29T21:27:11;101423.84;;;26.52;29.37
77737;BME280;66903;59.926;30.404;2023-04-29T21:32:11;101421.59;;;26.49;29.45
77737;BME280;66903;59.926;30.404;2023-04-29T21:37:12;101415.00;;;26.48;29.20
77737;BME280;66903;59.926;30.404;2023-04-29T21:42:12;101413.06;;;26.44;29.45
77737;BME280;66903;59.926;30.404;2023-04-29T21:47:13;101406.78;;;26.42;29.29
77737;BME280;66903;59.926;30.404;2023-04-29T21:52:14;101415.97;;;26.39;29.23
77737;BME280;66903;59.926;30.404;2023-04-29T21:57:15;101410.84;;;26.36;29.28
77737;BME280;66903;59.926;30.404;2023-04-29T22:02:15;101412.34;;;26.33;29.36
77737;BME280;66903;59.926;30.404;2023-04-29T22:07:22;101407.19;;;26.30;29.16
77737;BME280;66903;59.926;30.404;2023-04-29T22:12:22;101402.63;;;26.29;28.91
77737;BME280;66903;59.926;30.404;2023-04-29T22:17:23;101393.19;;;26.29;28.74
77737;BME280;66903;59.926;30.404;2023-04-29T22:22:23;101396.34;;;26.27;28.91
77737;BME280;66903;59.926;30.404;2023-04-29T22:27:24;101391.25;;;26.24;28.60
77737;BME280;66903;59.926;30.404;2023-04-29T22:32:24;101384.66;;;26.23;28.87
77737;BME280;66903;59.926;30.404;2023-04-29T22:37:25;101370.31;;;26.23;28.80
77737;BME280;66903;59.926;30.404;2023-04-29T22:42:25;101356.38;;;26.17;28.69
77737;BME280;66903;59.926;30.404;2023-04-29T22:47:26;101358.63;;;26.20;28.44
77737;BME280;66903;59.926;30.404;2023-04-29T22:52:29;101364.34;;;26.20;28.50
77737;BME280;66903;59.926;30.404;2023-04-29T22:57:31;101362.94;;;26.17;28.55
77737;BME280;66903;59.926;30.404;2023-04-29T23:02:32;101350.72;;;26.12;28.19
77737;BME280;66903;59.926;30.404;2023-04-29T23:07:32;101350.16;;;26.10;28.36
77737;BME280;66903;59.926;30.404;2023-04-29T23:12:33;101352.09;;;26.14;28.12
77737;BME280;66903;59.926;30.404;2023-04-29T23:17:33;101340.66;;;26.14;28.31
77737;BME280;66903;59.926;30.404;2023-04-29T23:22:36;101324.94;;;26.12;28.53
77737;BME280;66903;59.926;30.404;2023-04-29T23:27:37;101330.69;;;26.12;28.24
77737;BME280;66903;59.926;30.404;2023-04-29T23:32:37;101321.53;;;26.10;28.20
77737;BME280;66903;59.926;30.404;2023-04-29T23:37:38;101314.31;;;26.12;28.49
77737;BME280;66903;59.926;30.404;2023-04-29T23:42:38;101317.25;;;26.07;28.32
77737;BME280;66903;59.926;30.404;2023-04-29T23:47:39;101325.22;;;26.10;28.09
77737;BME280;66903;59.926;30.404;2023-04-29T23:52:40;101316.63;;;26.10;28.17
77737;BME280;66903;59.926;30.404;2023-04-29T23:57:40;101310.66;;;26.07;28.13
